Time;durP1;ratioP1;P1;durP2;ratioP2;P2;SDS_P1;SDS_P2;PMS_P1;PMS_P2;Temp;Humidity;BMP_temperature;BMP_pressure;BME280_temperature;BME280_humidity;BME280_pressure;Samples;Min_cycle;Max_cycle;Signal;HPM_P1;HPM_P2
2022/09/21 00:02:17;;;;;;;8.48;3.80;;;;;;;7.15;97.74;99832.91;8400995;28;20052;-79
2022/09/21 00:06:20;;;;;;;7.47;3.60;;;;;;;7.17;97.94;99833.44;8406072;28;20162;-79
2022/09/21 00:10:21;;;;;;;9.50;3.15;;;;;;;7.15;97.74;99824.84;8402018;28;20186;-79
2022/09/21 00:14:22;;;;;;;8.05;3.90;;;;;;;7.17;98.03;99833.44;8384556;28;20059;-79
2022/09/21 00:18:23;;;;;;;6.47;3.35;;;;;;;7.17;98.33;99841.50;8393936;28;20057;-79
2022/09/21 00:22:24;;;;;;;7.47;3.83;;;;;;;7.19;98.34;99842.03;8410635;28;20526;-79
2022/09/21 00:26:26;;;;;;;8.68;3.70;;;;;;;7.22;98.07;99846.88;8407514;28;20052;-79
2022/09/21 00:30:27;;;;;;;7.82;3.60;;;;;;;7.26;98.18;99830.22;8409876;28;20057;-79
2022/09/21 00:34:29;;;;;;;7.22;3.80;;;;;;;7.29;98.24;99840.44;8413563;28;20120;-79
2022/09/21 00:38:30;;;;;;;7.45;4.05;;;;;;;7.33;98.50;99836.13;8386646;28;20052;-79
2022/09/21 00:42:33;;;;;;;17.00;4.88;;;;;;;7.36;98.41;99846.31;8407891;28;20049;-79
2022/09/21 00:46:37;;;;;;;7.10;3.70;;;;;;;7.35;98.76;99844.75;8402764;28;20055;-79
2022/09/21 00:50:43;;;;;;;9.50;4.90;;;;;;;7.35;98.75;99844.75;8406037;28;20049;-79
2022/09/21 00:54:50;;;;;;;6.22;3.85;;;;;;;7.36;99.28;99843.66;8396868;28;20048;-79
2022/09/21 00:58:51;;;;;;;9.38;4.10;;;;;;;7.39;99.20;99840.44;8405640;28;20053;-79
2022/09/21 01:03:00;;;;;;;9.23;4.25;;;;;;;7.40;99.49;99842.06;8402033;28;20060;-78
2022/09/21 01:07:04;;;;;;;9.73;5.30;;;;;;;7.44;99.28;99848.50;8417382;28;20044;-79
2022/09/21 01:11:27;;;;;;;9.68;4.93;;;;;;;7.49;99.38;99851.19;8410158;28;20409;-78
2022/09/21 01:15:52;;;;;;;9.98;4.70;;;;;;;7.51;99.52;99849.00;8409621;28;20105;-79
2022/09/21 01:19:56;;;;;;;9.35;5.13;;;;;;;7.56;99.51;99857.09;8404653;28;20466;-79
2022/09/21 01:24:03;;;;;;;15.98;5.18;;;;;;;7.61;99.73;99854.41;8415780;28;20043;-78
2022/09/21 01:28:29;;;;;;;9.23;5.70;;;;;;;7.65;99.53;99860.84;8422123;28;20367;-78
2022/09/21 01:32:42;;;;;;;10.23;5.82;;;;;;;7.70;99.66;99871.59;8410377;28;20041;-79
2022/09/21 01:36:45;;;;;;;10.68;6.28;;;;;;;7.71;99.99;99870.50;8419125;28;20465;-78
2022/09/21 01:40:50;;;;;;;9.15;5.93;;;;;;;7.73;100.00;99868.34;8432623;28;20048;-79
2022/09/21 01:44:52;;;;;;;12.27;7.22;;;;;;;7.74;100.00;99880.72;8413105;28;20089;-80
2022/09/21 01:48:58;;;;;;;12.65;7.20;;;;;;;7.76;100.00;99867.81;8412094;28;20044;-79
2022/09/21 01:53:11;;;;;;;13.25;6.80;;;;;;;7.80;100.00;99868.88;8411143;28;20367;-78
2022/09/21 01:57:18;;;;;;;17.30;7.10;;;;;;;7.85;100.00;99866.19;8425435;28;20052;-81
2022/09/21 02:01:22;;;;;;;10.60;6.90;;;;;;;7.86;100.00;99867.78;8418217;28;20409;-79
2022/09/21 02:05:31;;;;;;;46.20;8.43;;;;;;;7.82;100.00;99877.50;8410104;28;20435;-78
2022/09/21 02:09:34;;;;;;;17.50;7.90;;;;;;;7.80;100.00;99878.81;8415006;28;20055;-78
2022/09/21 02:13:37;;;;;;;28.02;8.40;;;;;;;7.81;100.00;99873.19;8411898;28;20045;-78
2022/09/21 02:18:05;;;;;;;21.45;8.23;;;;;;;7.82;100.00;99882.88;8359927;28;20048;-78
2022/09/21 02:22:36;;;;;;;16.05;8.48;;;;;;;7.82;100.00;99885.56;8402019;28;20044;-79
2022/09/21 02:26:49;;;;;;;13.93;9.23;;;;;;;7.80;100.00;99885.00;8329066;28;20057;-77
2022/09/21 02:30:59;;;;;;;13.18;8.98;;;;;;;7.78;100.00;99884.47;8328386;28;20127;-78
2022/09/21 02:35:19;;;;;;;61.30;10.57;;;;;;;7.83;100.00;99881.75;8312655;28;20150;-78
2022/09/21 02:39:30;;;;;;;18.05;8.73;;;;;;;7.81;100.00;99892.00;8328951;28;20596;-79
2022/09/21 02:43:46;;;;;;;16.23;10.02;;;;;;;7.81;100.00;99883.94;8318470;28;20037;-79
2022/09/21 02:47:52;;;;;;;47.55;9.60;;;;;;;7.85;100.00;99882.31;8328103;28;20084;-80
2022/09/21 02:51:57;;;;;;;151.07;11.15;;;;;;;7.79;100.00;99886.06;8328437;28;20053;-79
2022/09/21 02:56:06;;;;;;;38.70;10.40;;;;;;;7.78;100.00;99887.16;8347051;28;20067;-78
2022/09/21 03:00:07;;;;;;;40.42;9.45;;;;;;;7.75;100.00;99893.09;8412832;28;20044;-79
2022/09/21 03:04:09;;;;;;;38.75;9.23;;;;;;;7.77;100.00;99896.31;8412584;28;20040;-81
2022/09/21 03:08:10;;;;;;;47.85;8.98;;;;;;;7.71;100.00;99897.41;8415674;28;20051;-80
2022/09/21 03:12:12;;;;;;;33.30;9.43;;;;;;;7.73;100.00;99905.97;8411655;28;20044;-81
2022/09/21 03:16:13;;;;;;;18.05;8.10;;;;;;;7.73;100.00;99900.59;8421123;28;20051;-79
2022/09/21 03:20:15;;;;;;;22.35;8.90;;;;;;;7.76;100.00;99899.28;8404415;28;20071;-78
2022/09/21 03:24:44;;;;;;;29.50;9.30;;;;;;;7.77;100.00;99896.31;8419510;28;20051;-79
2022/09/21 03:28:37;;;;;;;15.23;9.52;;;;;;;7.79;100.00;99904.91;8409112;28;20044;-79
2022/09/21 03:32:38;;;;;;;11.85;9.20;;;;;;;7.84;100.00;99901.41;8409994;28;20488;-79
2022/09/21 03:36:40;;;;;;;21.77;9.30;;;;;;;7.82;100.00;99899.00;8401036;28;20040;-80
2022/09/21 03:40:45;;;;;;;15.10;9.52;;;;;;;7.86;100.00;99907.31;8415641;28;20044;-78
2022/09/21 03:44:46;;;;;;;18.30;9.82;;;;;;;7.89;100.00;99910.25;8415973;28;20052;-80
2022/09/21 03:48:47;;;;;;;15.25;9.00;;;;;;;7.90;100.00;99922.63;8396869;28;20040;-78
2022/09/21 03:52:48;;;;;;;16.05;9.20;;;;;;;7.93;100.00;99932.84;8407639;28;20453;-78
2022/09/21 03:56:49;;;;;;;15.45;8.98;;;;;;;7.91;100.00;99935.00;8400957;28;20054;-79
2022/09/21 04:00:50;;;;;;;13.20;9.27;;;;;;;7.89;100.00;99931.78;8402652;28;20052;-79
2022/09/21 04:04:51;;;;;;;40.88;10.68;;;;;;;7.87;100.00;99931.25;8423162;28;20066;-78
2022/09/21 04:08:53;;;;;;;14.45;9.73;;;;;;;7.89;100.00;99937.16;8412756;28;20072;-78
2022/09/21 04:13:00;;;;;;;19.25;10.57;;;;;;;7.87;100.00;99933.94;8421272;28;20048;-80
2022/09/21 04:17:01;;;;;;;29.55;10.05;;;;;;;7.87;100.00;99938.53;8402466;28;20489;-80
2022/09/21 04:21:02;;;;;;;18.75;10.25;;;;;;;7.88;100.00;99940.91;8384296;28;20048;-79
2022/09/21 04:25:04;;;;;;;59.15;11.77;;;;;;;7.92;100.00;99947.38;8398529;28;20105;-78
2022/09/21 04:29:05;;;;;;;25.83;10.98;;;;;;;7.92;100.00;99947.38;8412629;28;20436;-78
2022/09/21 04:33:06;;;;;;;24.15;11.65;;;;;;;7.96;100.00;99948.47;8399459;28;20410;-78
2022/09/21 04:37:10;;;;;;;29.10;11.88;;;;;;;7.93;100.00;99954.34;8413094;28;20040;-79
2022/09/21 04:41:11;;;;;;;36.65;12.10;;;;;;;7.96;100.00;99956.53;8394363;28;20040;-78
2022/09/21 04:45:12;;;;;;;41.50;12.40;;;;;;;7.95;100.00;99957.59;8393148;28;20051;-78
2022/09/21 04:49:13;;;;;;;31.80;12.38;;;;;;;7.96;100.00;99953.03;8394190;28;20474;-79
2022/09/21 04:53:14;;;;;;;57.95;13.82;;;;;;;7.99;100.00;99953.28;8374936;28;20458;-79
2022/09/21 04:57:15;;;;;;;63.80;14.05;;;;;;;8.02;100.00;99963.53;8394289;28;20045;-79
2022/09/21 05:01:16;;;;;;;21.23;12.98;;;;;;;8.00;100.00;99960.28;8393601;28;20102;-79
2022/09/21 05:05:17;;;;;;;22.20;13.38;;;;;;;8.04;100.00;99960.53;8394065;28;20040;-78
2022/09/21 05:13:39;;;;;;;22.63;13.70;;;;;;;8.14;100.00;99965.13;8385872;28;20119;-79
2022/09/21 05:17:40;;;;;;;18.98;13.15;;;;;;;8.18;100.00;99960.81;8393695;28;20478;-79
2022/09/21 05:21:41;;;;;;;27.48;13.30;;;;;;;8.20;100.00;99975.59;8375768;28;20127;-78
2022/09/21 05:25:42;;;;;;;22.27;12.93;;;;;;;8.20;100.00;99974.78;8382891;28;20045;-78
2022/09/21 05:29:43;;;;;;;25.02;12.90;;;;;;;8.26;100.00;99984.44;8373045;28;20055;-79
2022/09/21 05:33:54;;;;;;;24.13;12.63;;;;;;;8.21;100.00;99982.56;8387216;28;20052;-79
2022/09/21 05:38:06;;;;;;;18.30;12.48;;;;;;;8.29;100.00;99989.31;8370166;28;20044;-79
2022/09/21 05:42:09;;;;;;;29.95;12.90;;;;;;;8.32;100.00;99978.00;8382330;28;20052;-80
2022/09/21 05:46:36;;;;;;;27.63;13.70;;;;;;;8.33;100.00;99990.41;8391174;28;20080;-79
2022/09/21 05:50:46;;;;;;;20.27;13.30;;;;;;;8.38;100.00;99993.09;8381407;28;20055;-79
2022/09/21 05:55:20;;;;;;;20.30;12.57;;;;;;;8.40;100.00;99990.94;8379376;28;20041;-78
2022/09/21 05:59:36;;;;;;;29.27;14.20;;;;;;;8.39;100.00;99992.00;8392982;28;20036;-77
2022/09/21 06:03:37;;;;;;;24.17;13.73;;;;;;;8.41;100.00;99997.91;8401636;28;20140;-79
2022/09/21 06:07:38;;;;;;;20.50;14.10;;;;;;;8.46;100.00;100000.59;8408353;28;20405;-79
2022/09/21 06:11:39;;;;;;;20.70;13.90;;;;;;;8.53;100.00;100005.69;8423428;28;20079;-79
2022/09/21 06:15:41;;;;;;;21.73;13.65;;;;;;;8.52;100.00;100015.66;8426070;28;20056;-79
2022/09/21 06:19:41;;;;;;;20.38;13.73;;;;;;;8.58;100.00;100009.19;8425294;28;20051;-77
2022/09/21 06:23:42;;;;;;;23.40;14.82;;;;;;;8.57;100.00;100012.94;8419904;28;20048;-79
2022/09/21 06:27:43;;;;;;;19.65;13.20;;;;;;;8.58;100.00;100014.56;8422560;28;20095;-78
2022/09/21 06:31:44;;;;;;;20.55;13.80;;;;;;;8.58;100.00;100025.34;8394104;28;20050;-79
2022/09/21 06:35:58;;;;;;;30.75;14.20;;;;;;;8.61;100.00;100019.41;8390995;28;20128;-79
2022/09/21 06:39:59;;;;;;;16.80;13.50;;;;;;;8.67;100.00;100022.91;8412938;28;20063;-78
2022/09/21 06:44:00;;;;;;;19.13;13.80;;;;;;;8.76;100.00;100019.38;8404111;28;20071;-79
2022/09/21 06:48:01;;;;;;;20.10;13.63;;;;;;;8.87;100.00;100029.03;8403043;28;20798;-79
2022/09/21 06:52:03;;;;;;;19.65;12.85;;;;;;;9.00;100.00;100032.19;8407150;28;20041;-79
2022/09/21 06:56:08;;;;;;;19.48;12.73;;;;;;;9.00;100.00;100032.19;8410810;28;20468;-78
2022/09/21 07:00:11;;;;;;;20.00;13.77;;;;;;;9.00;100.00;100037.59;8404366;28;20115;-78
2022/09/21 07:04:12;;;;;;;19.88;13.93;;;;;;;9.05;100.00;100037.56;8419041;28;20044;-81
2022/09/21 07:08:13;;;;;;;19.75;14.23;;;;;;;9.27;100.00;100046.09;8404529;28;20071;-79
2022/09/21 07:12:14;;;;;;;18.15;12.93;;;;;;;9.36;100.00;100036.34;8399441;28;20044;-78
2022/09/21 07:16:15;;;;;;;17.38;13.43;;;;;;;9.38;100.00;100039.56;8418269;28;20051;-78
2022/09/21 07:20:16;;;;;;;18.52;13.18;;;;;;;9.41;100.00;100039.00;8393368;28;20052;-81
2022/09/21 07:24:17;;;;;;;18.48;13.10;;;;;;;9.45;100.00;100045.47;8394147;28;20075;-79
2022/09/21 07:28:18;;;;;;;19.90;13.65;;;;;;;9.48;100.00;100053.00;8393445;28;20168;-79
2022/09/21 07:32:19;;;;;;;23.83;13.70;;;;;;;9.46;100.00;100047.09;8394000;28;20139;-79
2022/09/21 07:36:20;;;;;;;21.80;14.38;;;;;;;9.51;100.00;100060.53;8390626;28;20044;-77
2022/09/21 07:40:23;;;;;;;18.23;13.45;;;;;;;9.59;100.00;100056.44;8393176;28;20064;-79
2022/09/21 07:44:25;;;;;;;19.30;13.63;;;;;;;9.61;100.00;100065.88;8343803;28;20048;-80
2022/09/21 07:48:27;;;;;;;22.33;14.13;;;;;;;9.64;100.00;100070.69;8396611;28;20123;-83
2022/09/21 07:52:28;;;;;;;18.10;13.48;;;;;;;9.72;100.00;100067.44;8399862;28;20036;-80
2022/09/21 07:56:29;;;;;;;26.08;13.77;;;;;;;9.75;100.00;100072.25;8396806;28;20482;-79
2022/09/21 08:00:33;;;;;;;21.98;14.20;;;;;;;9.86;100.00;100072.19;8377942;28;20048;-83
2022/09/21 08:04:34;;;;;;;20.52;14.32;;;;;;;9.94;100.00;100075.09;8410844;28;20048;-79
2022/09/21 08:08:35;;;;;;;19.83;14.13;;;;;;;10.04;100.00;100074.22;8425851;28;20051;-79
2022/09/21 08:12:36;;;;;;;17.83;13.38;;;;;;;10.14;100.00;100069.56;8408209;28;20154;-80
2022/09/21 08:16:37;;;;;;;19.70;13.18;;;;;;;10.20;100.00;100078.44;8421963;28;20051;-80
2022/09/21 08:20:38;;;;;;;23.48;13.75;;;;;;;10.26;100.00;100082.69;8414028;28;20143;-81
2022/09/21 08:24:43;;;;;;;15.63;12.35;;;;;;;10.32;100.00;100081.56;8401992;28;20068;-82
2022/09/21 08:28:48;;;;;;;18.10;12.82;;;;;;;10.43;100.00;100083.09;8412619;28;20131;-80
2022/09/21 08:32:49;;;;;;;17.05;12.18;;;;;;;10.58;100.00;100085.66;8424464;28;20044;-79
2022/09/21 08:36:50;;;;;;;20.05;13.50;;;;;;;10.64;100.00;100088.31;8419543;28;20544;-82
2022/09/21 08:40:51;;;;;;;20.20;13.45;;;;;;;10.87;100.00;100087.53;8429438;28;20052;-80
2022/09/21 08:45:05;;;;;;;16.80;10.98;;;;;;;10.95;100.00;100092.31;8403289;28;20745;-81
2022/09/21 08:49:13;;;;;;;18.25;11.75;;;;;;;11.10;100.00;100097.56;8407695;28;20064;-80
2022/09/21 08:53:26;;;;;;;12.70;10.23;;;;;;;11.21;100.00;100093.63;8428506;28;20028;-81
2022/09/21 08:57:32;;;;;;;16.05;11.18;;;;;;;11.36;100.00;100085.34;8391527;28;20119;-80
2022/09/21 09:02:24;;;;;;;14.38;10.70;;;;;;;11.44;100.00;100081.97;8387239;28;20051;-80
2022/09/21 09:06:48;;;;;;;14.02;9.80;;;;;;;11.69;100.00;100082.72;8238346;28;20054;-81
2022/09/21 09:11:30;;;;;;;15.02;9.60;;;;;;;11.88;99.10;100080.88;8237176;28;20050;-80
2022/09/21 09:15:56;;;;;;;14.63;9.02;;;;;;;11.85;98.53;100078.72;8069691;29;20559;-81
2022/09/21 09:20:05;;;;;;;10.65;7.25;;;;;;;11.88;98.12;100086.28;8070665;29;20534;-81
2022/09/21 09:24:22;;;;;;;9.77;7.13;;;;;;;11.87;98.02;100084.66;8070526;29;20045;-81
2022/09/21 09:28:29;;;;;;;12.48;7.72;;;;;;;12.09;97.76;100082.16;8070536;29;20077;-81
2022/09/21 09:32:43;;;;;;;9.57;7.00;;;;;;;12.15;97.11;100075.56;8088578;29;20093;-80
2022/09/21 09:36:47;;;;;;;10.27;6.28;;;;;;;12.40;96.81;100065.41;8107726;29;20526;-80
2022/09/21 09:41:25;;;;;;;8.82;6.20;;;;;;;12.46;95.78;100075.88;8182736;28;20062;-80
2022/09/21 09:45:36;;;;;;;11.02;6.28;;;;;;;12.43;95.25;100071.03;8266104;28;20157;-80
2022/09/21 09:50:01;;;;;;;10.60;5.43;;;;;;;12.25;95.27;100075.41;8288582;28;20141;-84
2022/09/21 09:54:02;;;;;;;6.85;5.10;;;;;;;12.56;95.09;100080.31;8390432;28;20043;-80
2022/09/21 09:58:04;;;;;;;10.07;5.35;;;;;;;12.87;93.21;100070.50;8399398;28;20063;-79
2022/09/21 10:02:18;;;;;;;11.32;5.07;;;;;;;13.09;91.98;100070.63;8400683;28;20468;-79
2022/09/21 10:06:30;;;;;;;6.28;4.57;;;;;;;13.34;90.94;100073.94;8424919;28;20051;-79
2022/09/21 10:10:35;;;;;;;7.15;4.18;;;;;;;13.45;89.47;100075.34;8432479;28;20055;-81
2022/09/21 10:14:36;;;;;;;6.88;4.03;;;;;;;13.62;89.08;100075.50;8433927;28;20065;-81
2022/09/21 10:18:52;;;;;;;9.43;3.97;;;;;;;13.78;87.42;100078.69;8432817;28;20055;-82
2022/09/21 10:22:54;;;;;;;4.10;3.10;;;;;;;13.81;86.27;100057.16;8418369;28;20040;-80
2022/09/21 10:27:02;;;;;;;10.48;3.65;;;;;;;13.66;85.85;100057.50;8432569;28;20048;-81
2022/09/21 10:31:09;;;;;;;5.78;3.90;;;;;;;13.79;85.77;100053.97;8432022;28;20070;-80
2022/09/21 10:35:10;;;;;;;8.90;3.70;;;;;;;13.94;84.67;100056.31;8432172;28;20087;-82
2022/09/21 10:39:14;;;;;;;7.32;3.80;;;;;;;14.16;84.11;100058.25;8433279;28;20090;-80
2022/09/21 10:43:35;;;;;;;5.55;3.60;;;;;;;14.27;82.86;100058.78;8413107;28;20090;-80
2022/09/21 10:47:42;;;;;;;11.95;3.42;;;;;;;14.27;81.92;100053.34;8362076;28;20044;-81
2022/09/21 10:51:45;;;;;;;8.52;3.42;;;;;;;14.25;80.56;100055.56;8328997;28;20049;-81
2022/09/21 10:55:55;;;;;;;5.03;3.10;;;;;;;14.43;81.24;100049.16;8318214;28;20046;-80
2022/09/21 10:59:56;;;;;;;6.10;2.72;;;;;;;14.39;80.53;100045.44;8326978;28;20045;-80
2022/09/21 11:03:59;;;;;;;7.00;3.20;;;;;;;14.30;80.94;100050.81;8328743;28;20139;-79
2022/09/21 11:08:17;;;;;;;5.15;2.58;;;;;;;14.53;80.58;100029.88;8328652;28;20479;-80
2022/09/21 11:12:34;;;;;;;4.55;3.28;;;;;;;14.67;79.68;100030.56;8328419;28;20050;-79
2022/09/21 11:16:53;;;;;;;8.38;3.55;;;;;;;14.43;79.63;100021.19;8325467;28;20061;-80
2022/09/21 11:20:56;;;;;;;7.63;2.88;;;;;;;14.11;79.85;100027.69;8373848;28;20516;-80
2022/09/21 11:25:18;;;;;;;3.45;2.30;;;;;;;13.96;79.64;100029.63;8375499;28;20111;-80
2022/09/21 11:29:41;;;;;;;4.68;2.05;;;;;;;14.56;78.80;100026.53;8406041;28;20185;-81
2022/09/21 11:34:15;;;;;;;6.55;2.53;;;;;;;14.90;77.50;100034.03;8431315;28;20489;-81
2022/09/21 11:38:42;;;;;;;5.57;2.40;;;;;;;14.68;76.88;100029.47;8364502;28;20055;-83
2022/09/21 11:43:05;;;;;;;5.43;2.28;;;;;;;14.30;77.70;100025.56;8431218;28;20151;-80
2022/09/21 11:47:29;;;;;;;4.60;2.00;;;;;;;14.32;77.84;100028.78;8431309;28;20473;-80
2022/09/21 11:51:37;;;;;;;3.65;2.25;;;;;;;14.28;77.59;100027.75;8430878;28;20450;-80
2022/09/21 11:56:00;;;;;;;5.35;2.22;;;;;;;14.29;77.16;100023.94;8429765;28;20052;-80
2022/09/21 12:00:17;;;;;;;2.30;1.90;;;;;;;14.38;76.31;100016.69;8430673;28;20616;-80
2022/09/21 12:04:42;;;;;;;3.72;2.13;;;;;;;14.58;75.94;100016.16;8429810;28;20051;-80
2022/09/21 12:08:53;;;;;;;28.75;13.35;;;;;;;14.61;75.20;100007.34;8429043;28;20052;-81
2022/09/21 12:13:07;;;;;;;6.07;2.60;;;;;;;14.64;75.51;100004.03;8429111;28;20044;-81
2022/09/21 12:17:08;;;;;;;6.28;3.05;;;;;;;14.72;76.16;100005.97;8430261;28;20410;-81
2022/09/21 12:21:15;;;;;;;6.38;4.28;;;;;;;14.56;74.50;100004.78;8430182;28;20055;-80
2022/09/21 12:25:23;;;;;;;3.05;2.33;;;;;;;14.43;73.82;100005.69;8428843;28;20048;-83
2022/09/21 12:29:33;;;;;;;5.55;4.60;;;;;;;14.33;74.10;99997.75;8414262;28;20458;-81
2022/09/21 12:33:44;;;;;;;8.77;4.30;;;;;;;14.21;74.88;100000.25;8429829;28;20078;-80
2022/09/21 12:38:03;;;;;;;3.95;3.03;;;;;;;14.04;75.37;100005.56;8429702;28;20116;-80
2022/09/21 12:42:39;;;;;;;6.00;2.83;;;;;;;13.97;76.01;100006.00;8429515;28;20072;-80
2022/09/21 12:46:51;;;;;;;7.32;2.20;;;;;;;14.08;76.45;100003.84;8402491;28;20063;-80
2022/09/21 12:51:00;;;;;;;5.68;1.92;;;;;;;14.18;76.28;99995.44;8429382;28;20161;-80
2022/09/21 12:55:20;;;;;;;2.70;2.10;;;;;;;14.36;76.17;99994.44;8424422;28;20053;-81
2022/09/21 12:59:48;;;;;;;2.95;2.08;;;;;;;14.45;75.52;100006.16;8422695;28;20397;-82
2022/09/21 13:04:02;;;;;;;5.28;2.60;;;;;;;14.42;75.81;99995.13;8387663;28;20089;-80
2022/09/21 13:08:09;;;;;;;3.10;2.00;;;;;;;14.39;74.57;99996.53;8402017;28;20048;-79
2022/09/21 13:12:22;;;;;;;6.45;2.00;;;;;;;14.38;75.32;99995.72;8410318;28;20064;-79
2022/09/21 13:16:29;;;;;;;2.63;2.03;;;;;;;14.39;74.97;99991.09;8401842;28;20072;-81
2022/09/21 13:20:40;;;;;;;4.68;2.00;;;;;;;14.51;75.21;99994.03;8394168;28;20042;-80
2022/09/21 13:24:41;;;;;;;5.32;1.98;;;;;;;14.39;75.07;99996.53;8395387;28;20509;-79
2022/09/21 13:28:55;;;;;;;4.72;2.03;;;;;;;14.34;75.05;99989.28;8392094;28;20044;-80
2022/09/21 13:32:56;;;;;;;2.85;1.83;;;;;;;14.28;74.49;99989.72;8387220;28;20056;-81
2022/09/21 13:37:10;;;;;;;2.33;2.13;;;;;;;14.32;74.94;99990.72;8404437;28;20056;-80
2022/09/21 13:41:17;;;;;;;4.55;2.10;;;;;;;14.38;74.37;99992.25;8395148;28;20044;-82
2022/09/21 13:45:18;;;;;;;2.30;1.70;;;;;;;15.00;73.37;99989.44;8394099;28;20124;-80
2022/09/21 13:49:28;;;;;;;2.53;2.25;;;;;;;15.36;72.16;99987.25;8394386;28;20040;-81
2022/09/21 13:53:34;;;;;;;3.80;1.70;;;;;;;15.56;71.04;99981.19;8392576;28;20041;-80
2022/09/21 13:57:39;;;;;;;2.55;1.65;;;;;;;16.24;69.26;99979.50;8397611;28;20045;-82
2022/09/21 14:01:40;;;;;;;4.68;1.40;;;;;;;16.51;68.83;99977.50;8359178;28;20040;-80
2022/09/21 14:05:47;;;;;;;1.52;1.30;;;;;;;15.77;67.52;99980.53;8401118;28;20048;-80
2022/09/21 14:09:57;;;;;;;5.15;1.77;;;;;;;15.21;69.00;99984.97;8406574;28;20454;-82
2022/09/21 14:14:12;;;;;;;1.80;1.52;;;;;;;14.87;70.84;99979.44;8427220;28;20066;-82
2022/09/21 14:18:16;;;;;;;6.53;4.85;;;;;;;14.53;72.33;99970.09;8413432;28;20055;-80
2022/09/21 14:22:18;;;;;;;2.20;1.75;;;;;;;14.25;73.53;99974.06;8425851;28;20064;-79
2022/09/21 14:26:38;;;;;;;3.10;1.85;;;;;;;14.29;74.00;99964.16;8419489;28;20041;-80
2022/09/21 14:30:52;;;;;;;2.80;2.08;;;;;;;14.56;73.62;99964.00;8424080;28;20509;-82
2022/09/21 14:34:58;;;;;;;3.00;1.98;;;;;;;14.52;74.00;99971.19;8433795;28;20135;-80
2022/09/21 14:39:02;;;;;;;9.68;2.22;;;;;;;14.52;73.64;99962.22;8433303;28;20055;-80
2022/09/21 14:43:18;;;;;;;2.58;1.92;;;;;;;14.60;73.59;99959.53;8431992;28;20047;-80
2022/09/21 14:47:27;;;;;;;4.43;2.28;;;;;;;14.59;74.34;99957.94;8433118;28;20086;-79
2022/09/21 14:51:37;;;;;;;4.07;1.80;;;;;;;14.57;74.16;99954.75;8414181;28;20049;-81
2022/09/21 14:56:00;;;;;;;4.93;2.08;;;;;;;14.32;74.91;99953.50;8399424;28;20040;-80
2022/09/21 15:00:01;;;;;;;2.28;1.80;;;;;;;14.22;75.31;99952.97;8416614;28;20044;-80
2022/09/21 15:04:25;;;;;;;10.02;2.13;;;;;;;14.24;75.91;99950.72;8427630;28;20060;-79
2022/09/21 15:14:03;;;;;;;2.45;2.20;;;;;;;14.07;74.69;99946.00;8231772;28;20047;-80
2022/09/21 15:18:16;;;;;;;2.08;1.40;;;;;;;13.99;74.01;99943.25;8189772;29;20074;-80
2022/09/21 15:22:20;;;;;;;3.97;1.75;;;;;;;13.98;74.93;99947.06;8228018;28;20082;-80
2022/09/21 15:26:29;;;;;;;4.82;1.88;;;;;;;13.91;76.07;99953.72;8231257;28;20146;-80
2022/09/21 15:30:32;;;;;;;6.78;5.05;;;;;;;13.87;76.77;99952.75;8230662;28;20066;-81
2022/09/21 15:34:32;;;;;;;3.58;2.42;;;;;;;13.91;77.28;99942.88;8214659;28;20058;-81
2022/09/21 15:38:35;;;;;;;3.28;2.50;;;;;;;13.91;77.76;99942.88;8169384;28;20100;-80
2022/09/21 15:42:58;;;;;;;5.63;2.75;;;;;;;13.87;78.29;99939.19;8217718;28;20617;-81
2022/09/21 15:47:01;;;;;;;10.05;3.10;;;;;;;13.88;78.79;99943.50;8327929;28;20163;-80
2022/09/21 15:51:27;;;;;;;4.30;2.58;;;;;;;13.88;79.36;99942.69;8426693;28;20520;-81
2022/09/21 15:55:29;;;;;;;3.25;2.58;;;;;;;13.87;79.41;99941.88;8431400;28;20042;-80
2022/09/21 15:59:30;;;;;;;7.72;2.97;;;;;;;13.87;81.15;99958.19;8417093;28;20053;-81
2022/09/21 16:03:31;;;;;;;5.75;2.70;;;;;;;13.68;82.73;99965.72;8426047;28;20070;-82
2022/09/21 16:07:35;;;;;;;5.30;3.20;;;;;;;13.52;84.02;99972.63;8430211;28;20036;-82
2022/09/21 16:11:37;;;;;;;12.85;4.05;;;;;;;13.29;85.06;99970.97;8416800;28;20576;-81
2022/09/21 16:15:38;;;;;;;5.57;2.97;;;;;;;13.06;86.85;99975.50;8411137;28;20059;-79
2022/09/21 16:19:49;;;;;;;4.18;3.38;;;;;;;12.98;87.48;99974.31;8404457;28;20546;-79
2022/09/21 16:23:53;;;;;;;4.65;3.25;;;;;;;12.91;88.15;99979.34;8409993;28;20040;-80
2022/09/21 16:27:57;;;;;;;6.38;3.13;;;;;;;12.79;89.47;99987.19;8389808;28;20468;-79
2022/09/21 16:32:16;;;;;;;8.55;3.47;;;;;;;12.70;90.33;99995.22;8383058;28;20049;-79
2022/09/21 16:36:24;;;;;;;6.32;3.40;;;;;;;12.69;90.63;100009.03;8373153;28;20129;-80
2022/09/21 16:40:26;;;;;;;4.95;3.20;;;;;;;12.63;91.10;100010.28;8368467;28;20049;-80
2022/09/21 16:44:30;;;;;;;5.85;3.63;;;;;;;12.58;91.23;100013.09;8374987;28;20053;-79
2022/09/21 16:48:31;;;;;;;8.15;4.68;;;;;;;12.47;91.62;100007.03;8375640;28;20048;-79
2022/09/21 16:52:32;;;;;;;16.25;8.07;;;;;;;12.34;92.10;100012.44;8366233;28;20041;-79
2022/09/21 16:56:33;;;;;;;22.25;9.82;;;;;;;12.26;92.33;100012.03;8376742;28;20135;-79
2022/09/21 17:00:38;;;;;;;9.07;5.75;;;;;;;12.13;92.64;100006.56;8405763;28;20385;-79
2022/09/21 17:04:39;;;;;;;12.57;5.95;;;;;;;12.09;92.83;100010.97;8407008;28;20048;-80
2022/09/21 17:08:41;;;;;;;23.23;12.18;;;;;;;12.00;92.87;100013.53;8400279;28;20048;-80
2022/09/21 17:12:42;;;;;;;11.13;3.17;;;;;;;11.87;93.11;100008.88;8357451;28;20045;-80
2022/09/21 17:16:46;;;;;;;7.78;2.60;;;;;;;11.75;93.25;100006.63;8402338;28;20040;-80
2022/09/21 17:20:48;;;;;;;6.18;2.50;;;;;;;11.60;93.47;100019.56;8400945;28;20045;-80
2022/09/21 17:24:50;;;;;;;4.13;2.25;;;;;;;11.47;93.75;100025.72;8404488;28;20044;-79
2022/09/21 17:28:52;;;;;;;3.28;2.00;;;;;;;11.34;93.93;100028.03;8399721;28;20048;-80
2022/09/21 17:32:54;;;;;;;3.80;2.10;;;;;;;11.21;93.75;100034.13;8380589;28;21672;-80
2022/09/21 17:36:55;;;;;;;3.67;2.22;;;;;;;11.04;94.14;100030.31;8384959;28;20050;-80
2022/09/21 17:40:57;;;;;;;4.57;1.88;;;;;;;10.92;94.17;100041.53;8395232;28;20048;-80
2022/09/21 17:45:11;;;;;;;3.75;1.80;;;;;;;10.81;94.19;100040.03;8397418;28;20059;-80
2022/09/21 17:49:13;;;;;;;2.50;1.70;;;;;;;10.69;94.06;100047.72;8393252;28;20538;-80
2022/09/21 17:53:33;;;;;;;7.15;2.08;;;;;;;10.55;94.08;100051.13;8402500;28;20490;-80
2022/09/21 17:57:43;;;;;;;6.80;1.95;;;;;;;10.45;94.25;100053.94;8399993;28;20048;-80
2022/09/21 18:01:44;;;;;;;3.70;2.10;;;;;;;10.37;94.32;100046.41;8399497;28;20036;-80
2022/09/21 18:05:46;;;;;;;7.05;1.73;;;;;;;10.28;94.12;100053.53;8434411;28;20074;-80
2022/09/21 18:09:47;;;;;;;3.53;1.80;;;;;;;10.20;94.00;100054.16;8426794;28;20371;-80
2022/09/21 18:14:07;;;;;;;2.45;2.00;;;;;;;10.12;93.95;100065.50;8380053;28;20048;-79
2022/09/21 18:18:14;;;;;;;8.32;2.53;;;;;;;10.03;94.16;100057.22;8420437;28;20082;-80
2022/09/21 18:22:30;;;;;;;3.80;2.30;;;;;;;9.95;93.78;100054.31;8408000;28;20041;-79
2022/09/21 18:26:32;;;;;;;4.85;2.30;;;;;;;9.89;93.69;100055.44;8399293;28;20053;-78
2022/09/21 18:30:34;;;;;;;4.57;2.15;;;;;;;9.85;93.62;100054.38;8398887;28;20678;-80
2022/09/21 18:34:59;;;;;;;4.60;2.97;;;;;;;9.81;93.70;100058.72;8399050;28;20048;-79
2022/09/21 18:39:29;;;;;;;5.15;3.17;;;;;;;9.82;93.67;100049.56;8395643;28;20107;-79
2022/09/21 18:44:09;;;;;;;5.22;3.20;;;;;;;9.87;93.80;100052.22;8355540;28;20058;-79
2022/09/21 18:48:22;;;;;;;12.48;5.55;;;;;;;9.91;93.37;100047.88;8282270;28;20057;-79
2022/09/21 18:52:26;;;;;;;22.83;10.80;;;;;;;9.89;93.72;100050.84;8300319;28;20132;-79
2022/09/21 18:56:33;;;;;;;38.17;17.75;;;;;;;9.92;94.04;100049.47;8296634;28;20454;-79
2022/09/21 19:00:34;;;;;;;39.33;16.67;;;;;;;9.93;94.06;100051.91;8296141;28;20061;-79
2022/09/21 19:04:36;;;;;;;50.45;20.13;;;;;;;9.92;94.07;100054.88;8292268;28;20165;-78
2022/09/21 19:09:01;;;;;;;34.17;14.98;;;;;;;9.91;94.14;100061.34;8295324;28;20495;-79
2022/09/21 19:13:18;;;;;;;33.20;15.05;;;;;;;9.91;94.07;100058.66;8302804;28;20496;-79
2022/09/21 19:17:49;;;;;;;31.48;12.85;;;;;;;9.91;94.16;100058.66;8295140;28;20141;-79
2022/09/21 19:22:03;;;;;;;19.15;10.77;;;;;;;9.94;94.33;100063.50;8294266;28;20531;-79